createdAt,value
2022-09-12T00:00:43.838Z,98223.47
2022-09-12T00:03:10.933Z,98246.69
2022-09-12T00:05:41.955Z,98252.94
2022-09-12T00:08:09.105Z,98247.78
2022-09-12T00:10:39.708Z,98255.34
2022-09-12T00:13:07.172Z,98247.81
2022-09-12T00:15:38.578Z,98247.84
2022-09-12T00:18:08.409Z,98244.19
2022-09-12T00:20:35.728Z,98254.59
2022-09-12T00:23:03.106Z,98254.59
2022-09-12T00:25:31.323Z,98261.09
2022-09-12T00:27:58.417Z,98256.41
2022-09-12T00:30:25.745Z,98254.09
2022-09-12T00:32:54.751Z,98244.22
2022-09-12T00:35:23.325Z,98239.03
2022-09-12T00:37:50.474Z,98235.38
2022-09-12T00:40:18.014Z,98236.91
2022-09-12T00:42:45.122Z,98236.91
2022-09-12T00:45:21.854Z,98235.91
2022-09-12T00:47:49.446Z,98237.22
2022-09-12T00:50:17.848Z,98233.03
2022-09-12T00:52:50.990Z,98220.31
2022-09-12T00:55:21.349Z,98218.78
2022-09-12T00:57:52.741Z,98223.47
2022-09-12T01:00:22.444Z,98222.44
2022-09-12T01:02:53.545Z,98225.56
2022-09-12T01:05:22.513Z,98234.63
2022-09-12T01:07:51.696Z,98243.75
2022-09-12T01:10:19.946Z,98239.63
2022-09-12T01:12:48.012Z,98246.84
2022-09-12T01:15:15.131Z,98244.25
2022-09-12T01:17:52.988Z,98242.72
2022-09-12T01:20:49.661Z,98235.44
2022-09-12T01:23:50.757Z,98237.50
2022-09-12T01:27:04.961Z,98235.97
2022-09-12T01:29:49.729Z,98230.22
2022-09-12T01:32:26.539Z,98219.31
2022-09-12T01:35:04.249Z,98227.38
2022-09-12T01:37:39.577Z,98228.69
2022-09-12T01:40:14.693Z,98232.06
2022-09-12T01:42:45.246Z,98230.25
2022-09-12T01:45:19.088Z,98218.78
2022-09-12T01:47:51.874Z,98221.41
2022-09-12T01:50:21.724Z,98214.16
2022-09-12T01:52:53.816Z,98203.75
2022-09-12T01:55:25.400Z,98201.16
2022-09-12T01:57:57.606Z,98194.13
2022-09-12T02:00:25.193Z,98186.59
2022-09-12T02:02:58.007Z,98184.03
2022-09-12T02:05:31.379Z,98184.53
2022-09-12T02:08:03.988Z,98188.16
2022-09-12T02:10:34.692Z,98192.34
2022-09-12T02:13:12.549Z,98193.38
2022-09-12T02:15:43.676Z,98194.91
2022-09-12T02:18:16.047Z,98191.53
2022-09-12T02:20:48.488Z,98186.56
2022-09-12T02:23:20.853Z,98191.78
2022-09-12T02:25:52.298Z,98195.97
2022-09-12T02:28:26.339Z,98200.13
2022-09-12T02:31:00.906Z,98200.63
2022-09-12T02:33:35.807Z,98191.25
2022-09-12T02:36:13.083Z,98180.31
2022-09-12T02:38:45.424Z,98186.53
2022-09-12T02:41:15.825Z,98182.13
2022-09-12T02:43:43.095Z,98185.50
2022-09-12T02:46:21.344Z,98184.47
2022-09-12T02:48:49.828Z,98181.91
2022-09-12T02:51:21.510Z,98177.97
2022-09-12T02:53:50.877Z,98183.19
2022-09-12T02:56:23.681Z,98184.72
2022-09-12T02:58:51.498Z,98186.03
2022-09-12T03:01:29.835Z,98188.16
2022-09-12T03:04:19.366Z,98201.16
2022-09-12T03:06:54.492Z,98195.72
2022-09-12T03:09:34.914Z,98192.84
2022-09-12T03:12:26.065Z,98197.53
2022-09-12T03:15:10.914Z,98200.13
2022-09-12T03:17:55.718Z,98190.50
2022-09-12T03:20:33.580Z,98192.06
2022-09-12T03:23:05.844Z,98191.78
2022-09-12T03:25:36.529Z,98184.75
2022-09-12T03:28:08.200Z,98188.69
2022-09-12T03:30:39.272Z,98191.84
2022-09-12T03:33:06.469Z,98192.63
2022-09-12T03:35:34.865Z,98196.53
2022-09-12T03:38:02.141Z,98200.69
2022-09-12T03:40:29.461Z,98198.63
2022-09-12T03:42:56.546Z,98203.53
2022-09-12T03:45:23.699Z,98204.09
2022-09-12T03:47:50.743Z,98207.97
2022-09-12T03:50:18.205Z,98196.00
2022-09-12T03:52:46.623Z,98201.75
2022-09-12T03:55:13.856Z,98206.41
2022-09-12T03:57:40.912Z,98208.22
2022-09-12T04:00:09.269Z,98210.31
2022-09-12T04:02:46.647Z,98204.59
2022-09-12T04:05:14.014Z,98200.16
2022-09-12T04:07:41.127Z,98200.69
2022-09-12T04:10:09.994Z,98198.63
2022-09-12T04:12:37.228Z,98205.38
2022-09-12T04:15:05.189Z,98204.28
2022-09-12T04:17:32.242Z,98208.44
2022-09-12T04:19:59.501Z,98219.34
2022-09-12T04:22:26.896Z,98219.34
2022-09-12T04:24:53.950Z,98223.50
2022-09-12T04:27:22.598Z,98234.94
2022-09-12T04:29:49.686Z,98235.97
2022-09-12T04:32:16.810Z,98242.25
2022-09-12T04:34:43.862Z,98250.03
2022-09-12T04:37:11.785Z,98259.66
2022-09-12T04:39:38.935Z,98246.66
2022-09-12T04:42:06.478Z,98249.28
2022-09-12T04:44:35.303Z,98253.72
2022-09-12T04:47:03.387Z,98262.53
2022-09-12T04:49:30.523Z,98254.75
2022-09-12T04:51:57.822Z,98256.28
2022-09-12T04:54:25.294Z,98257.56
2022-09-12T04:56:52.741Z,98258.03
2022-09-12T04:59:21.831Z,98253.63
2022-09-12T05:01:50.444Z,98257.25
2022-09-12T05:04:18.137Z,98246.25
2022-09-12T05:06:47.422Z,98250.34
2022-09-12T05:09:15.899Z,98254.66
2022-09-12T05:14:32.943Z,98257.91
2022-09-12T05:17:02.294Z,98254.63
2022-09-12T05:19:31.089Z,98261.53
2022-09-12T05:21:59.011Z,98264.25
2022-09-12T05:24:26.234Z,98258.63
2022-09-12T05:26:53.396Z,98267.09
2022-09-12T05:29:20.534Z,98262.50
2022-09-12T05:31:50.181Z,98260.03
2022-09-12T05:34:19.125Z,98259.59
2022-09-12T05:36:46.169Z,98256.47
2022-09-12T05:39:13.490Z,98254.59
2022-09-12T05:41:40.609Z,98247.56
2022-09-12T05:44:12.480Z,98248.88
2022-09-12T05:46:41.850Z,98249.81
2022-09-12T05:49:11.359Z,98254.34
2022-09-12T05:51:43.745Z,98250.66
2022-09-12T05:54:13.226Z,98250.00
2022-09-12T05:56:41.851Z,98259.38
2022-09-12T05:59:13.102Z,98245.47
2022-09-12T06:01:40.808Z,98253.28
2022-09-12T06:04:08.334Z,98264.66
2022-09-12T06:06:38.576Z,98258.28
2022-09-12T06:09:07.428Z,98249.59
2022-09-12T06:11:37.264Z,98252.44
2022-09-12T06:14:05.056Z,98256.28
2022-09-12T06:16:33.799Z,98261.34
2022-09-12T06:19:03.002Z,98270.19
2022-09-12T06:21:34.646Z,98272.78
2022-09-12T06:24:02.467Z,98267.72
2022-09-12T06:26:31.174Z,98277.84
2022-09-12T06:29:00.830Z,98269.84
2022-09-12T06:31:30.164Z,98273.28
2022-09-12T06:34:01.286Z,98272.31
2022-09-12T06:36:30.120Z,98272.03
2022-09-12T06:38:59.444Z,98277.00
2022-09-12T06:41:27.262Z,98270.50
2022-09-12T06:43:55.949Z,98275.94
2022-09-12T06:46:23.501Z,98273.78
2022-09-12T06:48:50.638Z,98267.66
2022-09-12T06:51:20.072Z,98273.78
2022-09-12T06:53:48.575Z,98277.59
2022-09-12T06:56:17.341Z,98271.00
2022-09-12T06:58:44.745Z,98270.91
2022-09-12T07:01:15.576Z,98277.88
2022-09-12T07:03:44.293Z,98275.44
2022-09-12T07:06:14.489Z,98273.25
2022-09-12T07:08:41.689Z,98264.56
2022-09-12T07:11:10.641Z,98269.69
2022-09-12T07:13:38.065Z,98265.34
2022-09-12T07:16:06.538Z,98274.34
2022-09-12T07:18:35.249Z,98256.06
2022-09-12T07:21:03.032Z,98267.69
2022-09-12T07:23:30.373Z,98268.41
2022-09-12T07:25:59.218Z,98268.09
2022-09-12T07:28:27.654Z,98267.19
2022-09-12T07:30:55.958Z,98259.47
2022-09-12T07:33:24.603Z,98258.03
2022-09-12T07:35:54.438Z,98258.19
2022-09-12T07:38:21.725Z,98259.88
2022-09-12T07:40:49.127Z,98257.06
2022-09-12T07:43:16.234Z,98255.31
2022-09-12T07:45:43.584Z,98257.78
2022-09-12T07:48:10.690Z,98260.47
2022-09-12T07:50:40.933Z,98253.72
2022-09-12T07:53:11.707Z,98253.91
2022-09-12T07:55:38.765Z,98256.16
2022-09-12T07:58:05.819Z,98254.81
2022-09-12T08:00:35.975Z,98258.22
2022-09-12T08:03:03.874Z,98245.34
2022-09-12T08:05:31.149Z,98251.41
2022-09-12T08:07:58.808Z,98247.19
2022-09-12T08:10:27.525Z,98246.59
2022-09-12T08:12:54.636Z,98245.25
2022-09-12T08:15:21.714Z,98240.72
2022-09-12T08:17:48.776Z,98221.63
2022-09-12T08:20:16.037Z,98232.25
2022-09-12T08:22:43.388Z,98234.19
2022-09-12T08:25:11.454Z,98227.84
2022-09-12T08:27:40.827Z,98230.38
2022-09-12T08:30:09.934Z,98229.28
2022-09-12T08:32:37.189Z,98226.78
2022-09-12T08:35:04.897Z,98225.97
2022-09-12T08:37:32.219Z,98219.56
2022-09-12T08:39:59.571Z,98216.41
2022-09-12T08:42:40.913Z,98213.66
2022-09-12T08:45:18.012Z,98216.69
2022-09-12T08:47:46.939Z,98213.16
2022-09-12T08:50:17.815Z,98214.16
2022-09-12T08:52:53.377Z,98201.81
2022-09-12T08:55:28.513Z,98205.56
2022-09-12T08:57:55.616Z,98199.97
2022-09-12T09:00:26.033Z,98206.69
2022-09-12T09:03:23.875Z,98190.03
2022-09-12T09:05:59.303Z,98194.44
2022-09-12T09:08:45.293Z,98196.81
2022-09-12T09:11:34.414Z,98190.53
2022-09-12T09:14:49.138Z,98194.03
2022-09-12T09:17:25.258Z,98180.91
2022-09-12T09:19:59.231Z,98196.56
2022-09-12T09:22:36.404Z,98192.06
2022-09-12T09:25:07.796Z,98182.06
2022-09-12T09:27:41.994Z,98187.06
2022-09-12T09:30:14.462Z,98181.06
2022-09-12T09:32:44.169Z,98181.63
2022-09-12T09:35:18.329Z,98180.56
2022-09-12T09:38:00.624Z,98180.22
2022-09-12T09:40:37.521Z,98181.13
2022-09-12T09:43:11.066Z,98181.78
2022-09-12T09:45:39.442Z,98182.75
2022-09-12T09:48:16.805Z,98173.13
2022-09-12T09:50:49.564Z,98178.63
2022-09-12T09:53:30.236Z,98171.44
2022-09-12T09:56:00.294Z,98174.69
2022-09-12T09:58:31.878Z,98167.22
2022-09-12T10:01:00.153Z,98168.00
2022-09-12T10:03:33.694Z,98167.59
2022-09-12T10:06:02.925Z,98171.34
2022-09-12T10:08:32.085Z,98169.38
2022-09-12T10:11:02.542Z,98170.22
2022-09-12T10:13:35.234Z,98161.59
2022-09-12T10:16:05.741Z,98167.84
2022-09-12T10:18:39.975Z,98168.94
2022-09-12T10:21:16.898Z,98160.53
2022-09-12T10:23:45.316Z,98162.44
2022-09-12T10:26:15.460Z,98163.25
2022-09-12T10:28:46.817Z,98168.50
2022-09-12T10:31:16.772Z,98168.19
2022-09-12T10:33:52.584Z,98162.22
2022-09-12T10:36:20.530Z,98159.31
2022-09-12T10:38:52.745Z,98157.81
2022-09-12T10:41:21.848Z,98157.03
2022-09-12T10:43:49.626Z,98157.34
2022-09-12T10:46:31.265Z,98156.50
2022-09-12T10:49:24.860Z,98165.06
2022-09-12T10:51:54.082Z,98152.03
2022-09-12T10:54:24.900Z,98153.63
2022-09-12T10:57:11.348Z,98145.34
2022-09-12T10:59:55.732Z,98142.94
2022-09-12T11:02:29.003Z,98146.19
2022-09-12T11:05:05.754Z,98153.13
2022-09-12T11:07:40.761Z,98144.41
2022-09-12T11:10:21.996Z,98142.00
2022-09-12T11:12:56.094Z,98141.84
2022-09-12T11:15:46.804Z,98150.75
2022-09-12T11:18:27.146Z,98144.59
2022-09-12T11:21:09.512Z,98143.31
2022-09-12T11:23:53.491Z,98142.66
2022-09-12T11:26:31.329Z,98135.78
2022-09-12T11:29:11.318Z,98131.81
2022-09-12T11:31:54.060Z,98132.72
2022-09-12T11:34:32.513Z,98130.81
2022-09-12T11:37:20.069Z,98135.06
2022-09-12T11:39:55.631Z,98123.09
2022-09-12T11:42:30.139Z,98122.34
2022-09-12T11:45:04.541Z,98126.94
2022-09-12T11:47:35.377Z,98130.31
2022-09-12T11:50:16.028Z,98120.69
2022-09-12T11:52:44.670Z,98122.31
2022-09-12T11:55:17.530Z,98120.50
2022-09-12T11:57:49.302Z,98112.91
2022-09-12T12:00:18.605Z,98107.84
2022-09-12T12:02:55.973Z,98122.50
2022-09-12T12:05:26.438Z,98110.13
2022-09-12T12:07:57.121Z,98107.94
2022-09-12T12:10:27.886Z,98110.09
2022-09-12T12:12:56.231Z,98106.28
2022-09-12T12:15:25.598Z,98109.72
2022-09-12T12:18:08.254Z,98106.63
2022-09-12T12:20:36.241Z,98105.88
2022-09-12T12:23:06.433Z,98106.19
2022-09-12T12:25:51.569Z,98112.34
2022-09-12T12:29:00.364Z,98109.47
2022-09-12T12:31:27.608Z,98109.13
2022-09-12T12:34:32.970Z,98111.94
2022-09-12T12:37:38.815Z,98112.88
2022-09-12T12:40:20.833Z,98103.34
2022-09-12T12:42:59.548Z,98105.19
2022-09-12T12:46:01.877Z,98092.16
2022-09-12T12:48:33.848Z,98105.16
2022-09-12T12:51:36.447Z,98099.22
2022-09-12T12:54:09.775Z,98095.13
2022-09-12T12:56:42.617Z,98100.75
2022-09-12T12:59:17.965Z,98096.63
2022-09-12T13:01:51.548Z,98101.34
2022-09-12T13:04:24.980Z,98102.34
2022-09-12T13:06:59.513Z,98105.13
2022-09-12T13:09:28.638Z,98101.03
2022-09-12T13:12:04.387Z,98105.53
2022-09-12T13:14:50.185Z,98100.59
2022-09-12T13:17:24.220Z,98098.38
2022-09-12T13:20:16.942Z,98103.00
2022-09-12T13:22:43.008Z,98090.69
2022-09-12T13:25:24.831Z,98097.50
2022-09-12T13:28:06.151Z,98090.78
2022-09-12T13:30:35.326Z,98086.03
2022-09-12T13:33:18.054Z,98094.16
2022-09-12T13:36:18.323Z,98093.41
2022-09-12T13:38:56.472Z,98099.66
2022-09-12T13:41:39.322Z,98098.22
2022-09-12T13:44:11.596Z,98102.28
2022-09-12T13:46:39.377Z,98091.31
2022-09-12T13:49:19.138Z,98091.31
2022-09-12T13:51:46.789Z,98093.94
2022-09-12T13:54:22.529Z,98088.78
2022-09-12T13:56:51.634Z,98086.84
2022-09-12T13:59:20.124Z,98094.88
2022-09-12T14:01:48.346Z,98097.84
2022-09-12T14:04:36.319Z,98095.00
2022-09-12T14:07:11.736Z,98092.84
2022-09-12T14:09:41.457Z,98090.59
2022-09-12T14:12:20.634Z,98096.84
2022-09-12T14:14:51.417Z,98098.47
2022-09-12T14:17:24.132Z,98091.56
2022-09-12T14:19:52.861Z,98097.47
2022-09-12T14:22:20.281Z,98091.63
2022-09-12T14:24:51.795Z,98089.34
2022-09-12T14:27:23.453Z,98083.19
2022-09-12T14:29:56.271Z,98094.31
2022-09-12T14:32:24.963Z,98100.22
2022-09-12T14:35:16.761Z,98103.59
2022-09-12T14:37:49.011Z,98104.06
2022-09-12T14:40:18.948Z,98095.28
2022-09-12T14:42:49.542Z,98107.94
2022-09-12T14:45:27.434Z,98107.50
2022-09-12T14:47:55.889Z,98102.97
2022-09-12T14:50:26.330Z,98098.66
2022-09-12T14:53:04.959Z,98099.13
2022-09-12T14:55:34.074Z,98090.47
2022-09-12T14:58:14.546Z,98095.41
2022-09-12T15:00:54.861Z,98103.28
2022-09-12T15:03:28.334Z,98094.47
2022-09-12T15:05:55.945Z,98094.47
2022-09-12T15:08:23.258Z,98092.00
2022-09-12T15:10:50.827Z,98086.28
2022-09-12T15:13:23.076Z,98092.00
2022-09-12T15:15:54.283Z,98094.16
2022-09-12T15:18:22.685Z,98089.69
2022-09-12T15:20:51.745Z,98096.34
2022-09-12T15:23:23.737Z,98092.78
2022-09-12T15:25:51.213Z,98096.03
2022-09-12T15:28:20.514Z,98087.69
2022-09-12T15:30:50.465Z,98096.03
2022-09-12T15:33:21.030Z,98095.09
2022-09-12T15:35:48.160Z,98087.22
2022-09-12T15:38:15.341Z,98084.91
2022-09-12T15:40:42.477Z,98088.75
2022-09-12T15:43:12.300Z,98092.56
2022-09-12T15:45:41.797Z,98086.97
2022-09-12T15:48:10.209Z,98094.38
2022-09-12T15:50:38.822Z,98098.03
2022-09-12T15:53:05.894Z,98093.38
2022-09-12T15:55:33.505Z,98090.91
2022-09-12T15:58:04.856Z,98087.97
2022-09-12T16:00:34.238Z,98093.03
2022-09-12T16:03:01.438Z,98091.63
2022-09-12T16:05:29.584Z,98100.09
2022-09-12T16:07:58.040Z,98093.41
2022-09-12T16:10:27.794Z,98095.19
2022-09-12T16:12:54.952Z,98096.72
2022-09-12T16:15:23.713Z,98093.47
2022-09-12T16:17:51.565Z,98089.53
2022-09-12T16:20:19.355Z,98103.34
2022-09-12T16:22:46.707Z,98104.84
2022-09-12T16:25:15.234Z,98108.31
2022-09-12T16:27:42.622Z,98105.91
2022-09-12T16:30:10.700Z,98106.59
2022-09-12T16:32:37.812Z,98108.38
2022-09-12T16:35:06.222Z,98111.41
2022-09-12T16:37:34.679Z,98108.91
2022-09-12T16:40:02.122Z,98114.56
2022-09-12T16:42:30.681Z,98126.28
2022-09-12T16:44:57.843Z,98124.56
2022-09-12T16:47:25.374Z,98132.97
2022-09-12T16:49:52.445Z,98141.22
2022-09-12T16:52:19.549Z,98138.41
2022-09-12T16:54:46.686Z,98130.66
2022-09-12T16:57:13.790Z,98141.22
2022-09-12T16:59:42.241Z,98150.81
2022-09-12T17:02:12.072Z,98136.56
2022-09-12T17:04:39.143Z,98144.81
2022-09-12T17:07:07.014Z,98155.06
2022-09-12T17:09:34.535Z,98156.41
2022-09-12T17:12:02.116Z,98160.66
2022-09-12T17:14:30.509Z,98165.50
2022-09-12T17:16:59.044Z,98162.47
2022-09-12T17:19:29.589Z,98173.22
2022-09-12T17:21:57.346Z,98171.44
2022-09-12T17:24:25.265Z,98180.81
2022-09-12T17:26:53.592Z,98175.88
2022-09-12T17:29:21.077Z,98191.28
2022-09-12T17:31:48.843Z,98181.38
2022-09-12T17:34:17.865Z,98198.69
2022-09-12T17:36:45.611Z,98199.56
2022-09-12T17:39:13.683Z,98198.28
2022-09-12T17:41:45.800Z,98193.91
2022-09-12T17:44:17.345Z,98206.22
2022-09-12T17:46:44.660Z,98205.16
2022-09-12T17:49:13.780Z,98209.31
2022-09-12T17:51:43.934Z,98205.44
2022-09-12T17:54:12.912Z,98204.66
2022-09-12T17:56:40.502Z,98217.25
2022-09-12T17:59:10.837Z,98210.53
2022-09-12T18:01:57.000Z,98212.94
2022-09-12T18:04:24.219Z,98216.69
2022-09-12T18:06:53.065Z,98213.84
2022-09-12T18:09:22.035Z,98217.81
2022-09-12T18:11:49.991Z,98224.84
2022-09-12T18:14:17.857Z,98222.56
2022-09-12T18:16:45.535Z,98224.84
2022-09-12T18:19:13.319Z,98229.31
2022-09-12T18:21:40.587Z,98230.66
2022-09-12T18:24:10.005Z,98245.56
2022-09-12T18:26:37.502Z,98235.91
2022-09-12T18:29:04.896Z,98245.84
2022-09-12T18:31:32.146Z,98245.84
2022-09-12T18:34:00.390Z,98234.31
2022-09-12T18:36:28.340Z,98247.09
2022-09-12T18:38:56.918Z,98246.34
2022-09-12T18:41:25.985Z,98241.69
2022-09-12T18:43:55.491Z,98255.72
2022-09-12T18:46:22.968Z,98258.34
2022-09-12T18:48:50.295Z,98260.38
2022-09-12T18:51:19.170Z,98263.47
2022-09-12T18:53:50.418Z,98268.22
2022-09-12T18:56:17.842Z,98262.78
2022-09-12T18:58:50.677Z,98260.44
2022-09-12T19:01:20.434Z,98266.22
2022-09-12T19:03:48.423Z,98256.13
2022-09-12T19:06:18.338Z,98260.66
2022-09-12T19:08:46.338Z,98267.78
2022-09-12T19:11:13.468Z,98264.44
2022-09-12T19:13:42.601Z,98265.81
2022-09-12T19:16:13.689Z,98267.25
2022-09-12T19:18:41.425Z,98268.88
2022-09-12T19:21:13.210Z,98261.59
2022-09-12T19:23:40.382Z,98270.50
2022-09-12T19:26:10.066Z,98270.75
2022-09-12T19:28:37.252Z,98267.13
2022-09-12T19:31:05.935Z,98273.97
2022-09-12T19:33:34.953Z,98267.75
2022-09-12T19:36:03.536Z,98273.78
2022-09-12T19:38:31.189Z,98263.91
2022-09-12T19:40:59.068Z,98268.13
2022-09-12T19:43:26.513Z,98273.88
2022-09-12T19:45:55.738Z,98272.59
2022-09-12T19:48:23.062Z,98272.44
2022-09-12T19:50:51.698Z,98262.53
2022-09-12T19:53:19.151Z,98267.75
2022-09-12T19:55:46.965Z,98264.66
2022-09-12T19:58:14.150Z,98264.41
2022-09-12T20:00:41.435Z,98273.31
2022-09-12T20:03:08.833Z,98276.97
2022-09-12T20:05:40.748Z,98273.31
2022-09-12T20:08:11.037Z,98276.50
2022-09-12T20:10:38.085Z,98275.19
2022-09-12T20:13:05.846Z,98281.72
2022-09-12T20:15:32.929Z,98281.50
2022-09-12T20:18:00.089Z,98284.66
2022-09-12T20:20:27.566Z,98285.19
2022-09-12T20:22:54.642Z,98289.63
2022-09-12T20:25:23.142Z,98287.84
2022-09-12T20:27:50.391Z,98291.75
2022-09-12T20:30:17.878Z,98296.75
2022-09-12T20:32:45.116Z,98295.44
2022-09-12T20:35:12.263Z,98294.41
2022-09-12T20:37:40.718Z,98290.25
2022-09-12T20:40:08.794Z,98297.03
2022-09-12T20:42:37.730Z,98295.44
2022-09-12T20:45:05.722Z,98291.28
2022-09-12T20:47:32.822Z,98299.38
2022-09-12T20:49:59.961Z,98305.13
2022-09-12T20:52:27.010Z,98312.94
2022-09-12T20:54:54.129Z,98307.25
2022-09-12T20:57:21.238Z,98300.75
2022-09-12T20:59:50.501Z,98318.22
2022-09-12T21:02:17.772Z,98309.88
2022-09-12T21:04:45.095Z,98304.72
2022-09-12T21:07:12.279Z,98309.41
2022-09-12T21:09:39.705Z,98314.13
2022-09-12T21:12:07.042Z,98313.88
2022-09-12T21:14:34.268Z,98308.91
2022-09-12T21:17:03.116Z,98316.00
2022-09-12T21:19:30.361Z,98314.72
2022-09-12T21:21:57.532Z,98310.56
2022-09-12T21:24:24.738Z,98305.34
2022-09-12T21:26:52.028Z,98314.72
2022-09-12T21:29:19.148Z,98317.56
2022-09-12T21:31:49.370Z,98316.03
2022-09-12T21:34:18.056Z,98322.25
2022-09-12T21:36:45.286Z,98318.91
2022-09-12T21:39:12.413Z,98317.88
2022-09-12T21:41:39.548Z,98319.19
2022-09-12T21:44:07.740Z,98316.84
2022-09-12T21:46:34.947Z,98316.34
2022-09-12T21:49:02.787Z,98325.44
2022-09-12T21:51:31.429Z,98328.81
2022-09-12T21:53:58.664Z,98329.59
2022-09-12T21:56:25.815Z,98338.72
2022-09-12T21:58:53.033Z,98343.94
2022-09-12T22:01:20.388Z,98349.69
2022-09-12T22:03:48.044Z,98343.94
2022-09-12T22:06:17.025Z,98342.41
2022-09-12T22:08:48.117Z,98340.09
2022-09-12T22:11:15.386Z,98335.41
2022-09-12T22:13:45.236Z,98339.84
2022-09-12T22:16:12.875Z,98333.34
2022-09-12T22:18:40.271Z,98327.88
2022-09-12T22:21:09.637Z,98329.44
2022-09-12T22:23:55.099Z,98325.31
2022-09-12T22:26:23.745Z,98335.72
2022-09-12T22:28:51.477Z,98332.63
2022-09-12T22:31:18.952Z,98338.09
2022-09-12T22:33:46.643Z,98335.22
2022-09-12T22:36:14.198Z,98333.13
2022-09-12T22:38:41.530Z,98324.56
2022-09-12T22:41:10.846Z,98326.16
2022-09-12T22:43:39.596Z,98319.13
2022-09-12T22:46:07.685Z,98324.88
2022-09-12T22:48:34.862Z,98335.03
2022-09-12T22:51:02.214Z,98323.84
2022-09-12T22:53:29.434Z,98325.41
2022-09-12T22:55:56.643Z,98322.06
2022-09-12T22:58:23.871Z,98323.06
2022-09-12T23:00:52.619Z,98322.03
2022-09-12T23:03:21.375Z,98312.94
2022-09-12T23:05:48.849Z,98321.25
2022-09-12T23:08:17.115Z,98312.94
2022-09-12T23:10:44.453Z,98320.50
2022-09-12T23:13:11.736Z,98317.88
2022-09-12T23:15:39.056Z,98317.09
2022-09-12T23:18:08.447Z,98318.66
2022-09-12T23:20:35.623Z,98310.06
2022-09-12T23:23:02.925Z,98309.78
2022-09-12T23:25:30.978Z,98318.63
2022-09-12T23:27:58.660Z,98323.31
2022-09-12T23:30:25.878Z,98323.31
2022-09-12T23:32:53.051Z,98316.56
2022-09-12T23:35:21.593Z,98324.31
2022-09-12T23:37:48.764Z,98326.16
2022-09-12T23:40:16.313Z,98321.22
2022-09-12T23:42:43.496Z,98321.16
2022-09-12T23:45:10.880Z,98323.25
2022-09-12T23:47:38.063Z,98331.28
2022-09-12T23:50:05.965Z,98331.00
2022-09-12T23:52:34.599Z,98327.88
2022-09-12T23:55:01.784Z,98325.28
2022-09-12T23:57:29.495Z,98324.78
2022-09-12T23:59:56.693Z,98327.88
